sensor_id;sensor_type;location;lat;lon;timestamp;temperature;humidity
39919;DHT22;25589;51.552;13.424;2023-06-26T00:02:13;21.00;99.90
39919;DHT22;25589;51.552;13.424;2023-06-26T00:04:39;21.00;99.90
39919;DHT22;25589;51.552;13.424;2023-06-26T00:07:05;20.90;99.90
39919;DHT22;25589;51.552;13.424;2023-06-26T00:09:30;20.90;99.90
39919;DHT22;25589;51.552;13.424;2023-06-26T00:11:56;20.90;99.90
39919;DHT22;25589;51.552;13.424;2023-06-26T00:14:21;20.80;99.90
39919;DHT22;25589;51.552;13.424;2023-06-26T00:16:47;20.80;99.90
39919;DHT22;25589;51.552;13.424;2023-06-26T00:19:15;20.80;99.90
39919;DHT22;25589;51.552;13.424;2023-06-26T00:21:41;20.80;99.90
39919;DHT22;25589;51.552;13.424;2023-06-26T00:24:12;20.70;99.90
39919;DHT22;25589;51.552;13.424;2023-06-26T00:26:37;20.60;99.90
39919;DHT22;25589;51.552;13.424;2023-06-26T00:29:03;20.60;99.90
39919;DHT22;25589;51.552;13.424;2023-06-26T00:31:28;20.60;99.90
39919;DHT22;25589;51.552;13.424;2023-06-26T00:33:54;20.70;99.90
39919;DHT22;25589;51.552;13.424;2023-06-26T00:36:19;20.60;99.90
39919;DHT22;25589;51.552;13.424;2023-06-26T00:38:45;20.50;99.90
39919;DHT22;25589;51.552;13.424;2023-06-26T00:41:10;20.50;99.90
39919;DHT22;25589;51.552;13.424;2023-06-26T00:43:38;20.50;99.90
39919;DHT22;25589;51.552;13.424;2023-06-26T00:46:04;20.40;99.90
39919;DHT22;25589;51.552;13.424;2023-06-26T00:48:31;20.40;99.90
39919;DHT22;25589;51.552;13.424;2023-06-26T00:50:57;20.30;99.90
39919;DHT22;25589;51.552;13.424;2023-06-26T00:53:23;20.30;99.90
39919;DHT22;25589;51.552;13.424;2023-06-26T00:55:49;20.20;99.90
39919;DHT22;25589;51.552;13.424;2023-06-26T00:58:14;20.10;99.90
39919;DHT22;25589;51.552;13.424;2023-06-26T01:00:40;20.10;99.90
39919;DHT22;25589;51.552;13.424;2023-06-26T01:03:06;20.10;99.90
39919;DHT22;25589;51.552;13.424;2023-06-26T01:05:32;20.00;99.90
39919;DHT22;25589;51.552;13.424;2023-06-26T01:07:58;20.00;99.90
39919;DHT22;25589;51.552;13.424;2023-06-26T01:10:24;20.00;99.90
39919;DHT22;25589;51.552;13.424;2023-06-26T01:12:52;19.90;99.90
39919;DHT22;25589;51.552;13.424;2023-06-26T01:15:18;19.90;99.90
39919;DHT22;25589;51.552;13.424;2023-06-26T01:17:44;19.90;99.90
39919;DHT22;25589;51.552;13.424;2023-06-26T01:20:11;19.80;99.90
39919;DHT22;25589;51.552;13.424;2023-06-26T01:22:45;19.80;99.90
39919;DHT22;25589;51.552;13.424;2023-06-26T01:27:48;19.90;99.90
39919;DHT22;25589;51.552;13.424;2023-06-26T01:30:14;19.90;99.90
39919;DHT22;25589;51.552;13.424;2023-06-26T01:32:41;19.90;99.90
39919;DHT22;25589;51.552;13.424;2023-06-26T01:35:08;19.90;99.90
39919;DHT22;25589;51.552;13.424;2023-06-26T01:37:34;19.90;99.90
39919;DHT22;25589;51.552;13.424;2023-06-26T01:39:59;19.90;99.90
39919;DHT22;25589;51.552;13.424;2023-06-26T01:42:25;19.80;99.90
39919;DHT22;25589;51.552;13.424;2023-06-26T01:44:51;19.70;99.90
39919;DHT22;25589;51.552;13.424;2023-06-26T01:47:22;19.80;99.90
39919;DHT22;25589;51.552;13.424;2023-06-26T01:49:59;19.70;99.90
39919;DHT22;25589;51.552;13.424;2023-06-26T01:52:42;19.70;99.90
39919;DHT22;25589;51.552;13.424;2023-06-26T01:57:55;19.70;99.90
39919;DHT22;25589;51.552;13.424;2023-06-26T02:00:21;19.80;99.90
39919;DHT22;25589;51.552;13.424;2023-06-26T02:02:48;19.70;99.90
39919;DHT22;25589;51.552;13.424;2023-06-26T02:05:14;19.60;99.90
39919;DHT22;25589;51.552;13.424;2023-06-26T02:07:40;19.60;99.90
39919;DHT22;25589;51.552;13.424;2023-06-26T02:10:06;19.60;99.90
39919;DHT22;25589;51.552;13.424;2023-06-26T02:12:32;19.60;99.90
39919;DHT22;25589;51.552;13.424;2023-06-26T02:14:58;19.60;99.90
39919;DHT22;25589;51.552;13.424;2023-06-26T02:17:24;19.50;99.90
39919;DHT22;25589;51.552;13.424;2023-06-26T02:19:52;19.50;99.90
39919;DHT22;25589;51.552;13.424;2023-06-26T02:22:18;19.50;99.90
39919;DHT22;25589;51.552;13.424;2023-06-26T02:24:44;19.40;99.90
39919;DHT22;25589;51.552;13.424;2023-06-26T02:27:10;19.40;99.90
39919;DHT22;25589;51.552;13.424;2023-06-26T02:29:36;19.40;99.90
39919;DHT22;25589;51.552;13.424;2023-06-26T02:32:02;19.30;99.90
39919;DHT22;25589;51.552;13.424;2023-06-26T02:34:27;19.30;99.90
39919;DHT22;25589;51.552;13.424;2023-06-26T02:36:53;19.30;99.90
39919;DHT22;25589;51.552;13.424;2023-06-26T02:39:24;19.20;99.90
39919;DHT22;25589;51.552;13.424;2023-06-26T02:41:49;19.20;99.90
39919;DHT22;25589;51.552;13.424;2023-06-26T02:44:15;19.20;99.90
39919;DHT22;25589;51.552;13.424;2023-06-26T02:46:41;19.20;99.90
39919;DHT22;25589;51.552;13.424;2023-06-26T02:49:07;19.20;99.90
39919;DHT22;25589;51.552;13.424;2023-06-26T02:51:34;19.20;99.90
39919;DHT22;25589;51.552;13.424;2023-06-26T02:54:02;19.20;99.90
39919;DHT22;25589;51.552;13.424;2023-06-26T02:56:28;19.10;99.90
39919;DHT22;25589;51.552;13.424;2023-06-26T02:58:56;19.00;99.90
39919;DHT22;25589;51.552;13.424;2023-06-26T03:01:22;19.10;99.90
39919;DHT22;25589;51.552;13.424;2023-06-26T03:03:48;19.10;99.90
39919;DHT22;25589;51.552;13.424;2023-06-26T03:06:16;19.10;99.90
39919;DHT22;25589;51.552;13.424;2023-06-26T03:08:42;19.00;99.90
39919;DHT22;25589;51.552;13.424;2023-06-26T03:11:08;19.00;99.90
39919;DHT22;25589;51.552;13.424;2023-06-26T03:13:37;19.30;99.90
39919;DHT22;25589;51.552;13.424;2023-06-26T03:16:03;19.00;99.90
39919;DHT22;25589;51.552;13.424;2023-06-26T03:18:29;18.80;99.90
39919;DHT22;25589;51.552;13.424;2023-06-26T03:20:56;19.00;99.90
39919;DHT22;25589;51.552;13.424;2023-06-26T03:23:23;19.00;99.90
39919;DHT22;25589;51.552;13.424;2023-06-26T03:25:49;19.00;99.90
39919;DHT22;25589;51.552;13.424;2023-06-26T03:28:25;19.00;99.90
39919;DHT22;25589;51.552;13.424;2023-06-26T03:30:50;19.10;99.90
39919;DHT22;25589;51.552;13.424;2023-06-26T03:33:17;19.10;99.90
39919;DHT22;25589;51.552;13.424;2023-06-26T03:35:43;19.10;99.90
39919;DHT22;25589;51.552;13.424;2023-06-26T03:38:12;19.10;99.90
39919;DHT22;25589;51.552;13.424;2023-06-26T03:40:40;18.90;99.90
39919;DHT22;25589;51.552;13.424;2023-06-26T03:43:05;19.00;99.90
39919;DHT22;25589;51.552;13.424;2023-06-26T03:45:42;19.10;99.90
39919;DHT22;25589;51.552;13.424;2023-06-26T03:48:07;19.10;99.90
39919;DHT22;25589;51.552;13.424;2023-06-26T03:50:35;19.10;99.90
39919;DHT22;25589;51.552;13.424;2023-06-26T03:53:00;19.20;99.90
39919;DHT22;25589;51.552;13.424;2023-06-26T03:55:26;19.20;99.90
39919;DHT22;25589;51.552;13.424;2023-06-26T03:57:51;19.10;99.90
39919;DHT22;25589;51.552;13.424;2023-06-26T04:00:17;19.20;99.90
39919;DHT22;25589;51.552;13.424;2023-06-26T04:02:43;19.10;99.90
39919;DHT22;25589;51.552;13.424;2023-06-26T04:05:10;19.10;99.90
39919;DHT22;25589;51.552;13.424;2023-06-26T04:07:37;19.10;99.90
39919;DHT22;25589;51.552;13.424;2023-06-26T04:10:05;19.20;99.90
39919;DHT22;25589;51.552;13.424;2023-06-26T04:12:32;19.10;99.90
39919;DHT22;25589;51.552;13.424;2023-06-26T04:14:58;19.10;99.90
39919;DHT22;25589;51.552;13.424;2023-06-26T04:17:23;19.20;99.90
39919;DHT22;25589;51.552;13.424;2023-06-26T04:19:49;19.30;99.90
39919;DHT22;25589;51.552;13.424;2023-06-26T04:22:14;19.10;99.90
39919;DHT22;25589;51.552;13.424;2023-06-26T04:24:40;19.20;99.90
39919;DHT22;25589;51.552;13.424;2023-06-26T04:27:05;19.20;99.90
39919;DHT22;25589;51.552;13.424;2023-06-26T04:29:31;19.20;99.90
39919;DHT22;25589;51.552;13.424;2023-06-26T04:31:57;19.20;99.90
39919;DHT22;25589;51.552;13.424;2023-06-26T04:34:27;19.20;99.90
39919;DHT22;25589;51.552;13.424;2023-06-26T04:36:53;19.20;99.90
39919;DHT22;25589;51.552;13.424;2023-06-26T04:39:19;19.30;99.90
39919;DHT22;25589;51.552;13.424;2023-06-26T04:41:45;19.30;99.90
39919;DHT22;25589;51.552;13.424;2023-06-26T04:44:11;19.40;99.90
39919;DHT22;25589;51.552;13.424;2023-06-26T04:46:37;19.40;99.90
39919;DHT22;25589;51.552;13.424;2023-06-26T04:49:07;19.40;99.90
39919;DHT22;25589;51.552;13.424;2023-06-26T04:51:33;19.50;99.90
39919;DHT22;25589;51.552;13.424;2023-06-26T04:53:58;19.50;99.90
39919;DHT22;25589;51.552;13.424;2023-06-26T04:56:24;19.60;99.90
39919;DHT22;25589;51.552;13.424;2023-06-26T04:58:49;19.60;99.90
39919;DHT22;25589;51.552;13.424;2023-06-26T05:01:15;19.70;99.90
39919;DHT22;25589;51.552;13.424;2023-06-26T05:03:40;19.70;99.90
39919;DHT22;25589;51.552;13.424;2023-06-26T05:06:06;19.80;99.90
39919;DHT22;25589;51.552;13.424;2023-06-26T05:08:32;19.80;99.90
39919;DHT22;25589;51.552;13.424;2023-06-26T05:10:57;19.90;99.90
39919;DHT22;25589;51.552;13.424;2023-06-26T05:13:24;20.00;99.90
39919;DHT22;25589;51.552;13.424;2023-06-26T05:15:51;20.00;99.90
39919;DHT22;25589;51.552;13.424;2023-06-26T05:18:17;20.10;99.90
39919;DHT22;25589;51.552;13.424;2023-06-26T05:20:43;20.20;99.90
39919;DHT22;25589;51.552;13.424;2023-06-26T05:23:11;20.20;99.90
39919;DHT22;25589;51.552;13.424;2023-06-26T05:25:37;20.20;99.90
39919;DHT22;25589;51.552;13.424;2023-06-26T05:28:03;20.30;99.90
39919;DHT22;25589;51.552;13.424;2023-06-26T05:30:31;20.30;99.90
39919;DHT22;25589;51.552;13.424;2023-06-26T05:32:59;20.40;99.90
39919;DHT22;25589;51.552;13.424;2023-06-26T05:35:28;20.50;99.90
39919;DHT22;25589;51.552;13.424;2023-06-26T05:37:55;20.70;99.90
39919;DHT22;25589;51.552;13.424;2023-06-26T05:40:21;20.60;99.90
39919;DHT22;25589;51.552;13.424;2023-06-26T05:42:47;20.70;99.90
39919;DHT22;25589;51.552;13.424;2023-06-26T05:45:13;20.70;99.90
39919;DHT22;25589;51.552;13.424;2023-06-26T05:47:38;20.80;99.90
39919;DHT22;25589;51.552;13.424;2023-06-26T05:50:05;20.80;99.90
39919;DHT22;25589;51.552;13.424;2023-06-26T05:52:31;20.90;99.90
39919;DHT22;25589;51.552;13.424;2023-06-26T05:54:57;21.00;99.90
39919;DHT22;25589;51.552;13.424;2023-06-26T05:57:28;21.10;99.90
39919;DHT22;25589;51.552;13.424;2023-06-26T05:59:54;21.10;99.90
39919;DHT22;25589;51.552;13.424;2023-06-26T06:02:20;21.20;99.90
39919;DHT22;25589;51.552;13.424;2023-06-26T06:04:46;21.30;99.90
39919;DHT22;25589;51.552;13.424;2023-06-26T06:07:12;21.30;99.90
39919;DHT22;25589;51.552;13.424;2023-06-26T06:09:38;21.40;99.90
39919;DHT22;25589;51.552;13.424;2023-06-26T06:12:05;21.50;99.90
39919;DHT22;25589;51.552;13.424;2023-06-26T06:14:31;21.50;99.90
39919;DHT22;25589;51.552;13.424;2023-06-26T06:16:57;21.60;99.90
39919;DHT22;25589;51.552;13.424;2023-06-26T06:19:23;21.60;99.90
39919;DHT22;25589;51.552;13.424;2023-06-26T06:21:48;21.70;99.90
39919;DHT22;25589;51.552;13.424;2023-06-26T06:24:14;21.70;99.90
39919;DHT22;25589;51.552;13.424;2023-06-26T06:26:39;21.80;99.90
39919;DHT22;25589;51.552;13.424;2023-06-26T06:29:05;21.90;99.90
39919;DHT22;25589;51.552;13.424;2023-06-26T06:31:31;21.90;99.90
39919;DHT22;25589;51.552;13.424;2023-06-26T06:33:57;22.10;99.90
39919;DHT22;25589;51.552;13.424;2023-06-26T06:36:22;22.10;99.90
39919;DHT22;25589;51.552;13.424;2023-06-26T06:38:48;22.10;99.90
39919;DHT22;25589;51.552;13.424;2023-06-26T06:41:13;22.20;99.90
39919;DHT22;25589;51.552;13.424;2023-06-26T06:43:39;22.30;99.90
39919;DHT22;25589;51.552;13.424;2023-06-26T06:46:05;22.40;99.90
39919;DHT22;25589;51.552;13.424;2023-06-26T06:48:31;22.40;99.90
39919;DHT22;25589;51.552;13.424;2023-06-26T06:50:57;22.50;99.90
39919;DHT22;25589;51.552;13.424;2023-06-26T06:53:23;22.50;99.90
39919;DHT22;25589;51.552;13.424;2023-06-26T06:55:49;22.60;99.90
39919;DHT22;25589;51.552;13.424;2023-06-26T06:58:15;22.80;99.90
39919;DHT22;25589;51.552;13.424;2023-06-26T07:00:42;22.80;99.90
39919;DHT22;25589;51.552;13.424;2023-06-26T07:03:08;22.90;99.90
39919;DHT22;25589;51.552;13.424;2023-06-26T07:05:35;23.00;99.90
39919;DHT22;25589;51.552;13.424;2023-06-26T07:08:01;23.00;99.90
39919;DHT22;25589;51.552;13.424;2023-06-26T07:10:27;23.10;99.90
39919;DHT22;25589;51.552;13.424;2023-06-26T07:12:52;23.10;99.90
39919;DHT22;25589;51.552;13.424;2023-06-26T07:15:18;23.20;99.90
39919;DHT22;25589;51.552;13.424;2023-06-26T07:17:44;23.30;99.90
39919;DHT22;25589;51.552;13.424;2023-06-26T07:20:10;23.30;99.90
39919;DHT22;25589;51.552;13.424;2023-06-26T07:22:40;23.40;99.90
39919;DHT22;25589;51.552;13.424;2023-06-26T07:25:06;23.50;99.90
39919;DHT22;25589;51.552;13.424;2023-06-26T07:27:35;23.50;99.90
39919;DHT22;25589;51.552;13.424;2023-06-26T07:30:01;23.70;99.90
39919;DHT22;25589;51.552;13.424;2023-06-26T07:32:26;23.80;99.90
39919;DHT22;25589;51.552;13.424;2023-06-26T07:34:52;23.90;99.90
39919;DHT22;25589;51.552;13.424;2023-06-26T07:37:17;24.00;99.90
39919;DHT22;25589;51.552;13.424;2023-06-26T07:39:43;24.00;99.90
39919;DHT22;25589;51.552;13.424;2023-06-26T07:42:08;24.10;99.90
39919;DHT22;25589;51.552;13.424;2023-06-26T07:44:34;24.10;99.90
39919;DHT22;25589;51.552;13.424;2023-06-26T07:46:59;24.40;99.90
39919;DHT22;25589;51.552;13.424;2023-06-26T07:49:25;24.40;99.90
39919;DHT22;25589;51.552;13.424;2023-06-26T07:51:50;24.50;99.90
39919;DHT22;25589;51.552;13.424;2023-06-26T07:54:16;24.60;99.90
39919;DHT22;25589;51.552;13.424;2023-06-26T07:56:59;24.70;99.90
39919;DHT22;25589;51.552;13.424;2023-06-26T07:59:26;24.80;99.90
39919;DHT22;25589;51.552;13.424;2023-06-26T08:01:53;24.90;99.90
39919;DHT22;25589;51.552;13.424;2023-06-26T08:04:20;25.00;99.90
39919;DHT22;25589;51.552;13.424;2023-06-26T08:06:48;25.10;99.90
39919;DHT22;25589;51.552;13.424;2023-06-26T08:09:14;25.30;99.90
39919;DHT22;25589;51.552;13.424;2023-06-26T08:11:39;25.30;99.90
39919;DHT22;25589;51.552;13.424;2023-06-26T08:14:05;25.40;99.90
39919;DHT22;25589;51.552;13.424;2023-06-26T08:16:30;25.50;99.90
39919;DHT22;25589;51.552;13.424;2023-06-26T08:18:56;25.60;99.90
39919;DHT22;25589;51.552;13.424;2023-06-26T08:21:21;25.80;99.90
39919;DHT22;25589;51.552;13.424;2023-06-26T08:23:47;25.90;99.90
39919;DHT22;25589;51.552;13.424;2023-06-26T08:26:13;26.00;99.90
39919;DHT22;25589;51.552;13.424;2023-06-26T08:28:39;26.20;99.90
39919;DHT22;25589;51.552;13.424;2023-06-26T08:31:04;26.30;99.90
39919;DHT22;25589;51.552;13.424;2023-06-26T08:33:30;26.40;99.90
39919;DHT22;25589;51.552;13.424;2023-06-26T08:35:55;26.50;99.90
39919;DHT22;25589;51.552;13.424;2023-06-26T08:38:21;26.70;99.90
39919;DHT22;25589;51.552;13.424;2023-06-26T08:40:47;26.90;99.90
39919;DHT22;25589;51.552;13.424;2023-06-26T08:43:12;27.00;99.90
39919;DHT22;25589;51.552;13.424;2023-06-26T08:45:38;27.10;99.90
39919;DHT22;25589;51.552;13.424;2023-06-26T08:48:07;27.20;99.90
39919;DHT22;25589;51.552;13.424;2023-06-26T08:50:34;27.30;99.90
39919;DHT22;25589;51.552;13.424;2023-06-26T08:53:16;27.50;99.90
39919;DHT22;25589;51.552;13.424;2023-06-26T08:55:46;27.60;99.90
39919;DHT22;25589;51.552;13.424;2023-06-26T08:58:13;27.70;99.90
39919;DHT22;25589;51.552;13.424;2023-06-26T09:00:39;27.90;99.90
39919;DHT22;25589;51.552;13.424;2023-06-26T09:03:05;28.00;99.90
39919;DHT22;25589;51.552;13.424;2023-06-26T09:05:31;28.20;99.90
39919;DHT22;25589;51.552;13.424;2023-06-26T09:07:57;28.30;99.90
39919;DHT22;25589;51.552;13.424;2023-06-26T09:10:24;28.40;99.90
39919;DHT22;25589;51.552;13.424;2023-06-26T09:12:49;28.50;99.90
39919;DHT22;25589;51.552;13.424;2023-06-26T09:15:15;28.60;99.80
39919;DHT22;25589;51.552;13.424;2023-06-26T09:17:42;28.60;99.50
39919;DHT22;25589;51.552;13.424;2023-06-26T09:20:08;28.80;99.20
39919;DHT22;25589;51.552;13.424;2023-06-26T09:22:41;28.90;97.60
39919;DHT22;25589;51.552;13.424;2023-06-26T09:25:06;29.00;97.00
39919;DHT22;25589;51.552;13.424;2023-06-26T09:27:33;29.10;96.30
39919;DHT22;25589;51.552;13.424;2023-06-26T09:29:59;29.10;95.90
39919;DHT22;25589;51.552;13.424;2023-06-26T09:32:25;29.20;95.30
39919;DHT22;25589;51.552;13.424;2023-06-26T09:34:52;29.30;95.60
39919;DHT22;25589;51.552;13.424;2023-06-26T09:37:19;29.40;95.30
39919;DHT22;25589;51.552;13.424;2023-06-26T09:39:45;29.60;95.10
39919;DHT22;25589;51.552;13.424;2023-06-26T09:42:13;29.80;95.00
39919;DHT22;25589;51.552;13.424;2023-06-26T09:44:46;29.80;93.00
39919;DHT22;25589;51.552;13.424;2023-06-26T09:47:12;29.90;94.10
39919;DHT22;25589;51.552;13.424;2023-06-26T09:49:42;30.00;93.00
39919;DHT22;25589;51.552;13.424;2023-06-26T09:52:08;30.20;92.60
39919;DHT22;25589;51.552;13.424;2023-06-26T09:54:34;30.40;91.30
39919;DHT22;25589;51.552;13.424;2023-06-26T09:57:07;30.50;91.10
39919;DHT22;25589;51.552;13.424;2023-06-26T09:59:33;30.70;90.30
39919;DHT22;25589;51.552;13.424;2023-06-26T10:01:59;30.70;89.10
39919;DHT22;25589;51.552;13.424;2023-06-26T10:04:25;30.70;85.60
39919;DHT22;25589;51.552;13.424;2023-06-26T10:06:51;30.80;84.30
39919;DHT22;25589;51.552;13.424;2023-06-26T10:09:20;31.00;87.70
39919;DHT22;25589;51.552;13.424;2023-06-26T10:11:56;31.20;86.00
39919;DHT22;25589;51.552;13.424;2023-06-26T10:14:26;31.20;83.90
39919;DHT22;25589;51.552;13.424;2023-06-26T10:16:51;31.30;81.80
39919;DHT22;25589;51.552;13.424;2023-06-26T10:19:19;31.40;81.60
39919;DHT22;25589;51.552;13.424;2023-06-26T10:21:51;31.50;79.50
39919;DHT22;25589;51.552;13.424;2023-06-26T10:24:17;31.50;81.30
39919;DHT22;25589;51.552;13.424;2023-06-26T10:26:45;31.60;78.20
39919;DHT22;25589;51.552;13.424;2023-06-26T10:29:14;31.60;76.70
39919;DHT22;25589;51.552;13.424;2023-06-26T10:31:44;31.80;77.00
39919;DHT22;25589;51.552;13.424;2023-06-26T10:34:11;31.80;74.60
39919;DHT22;25589;51.552;13.424;2023-06-26T10:36:37;32.00;76.80
39919;DHT22;25589;51.552;13.424;2023-06-26T10:39:06;31.90;76.30
39919;DHT22;25589;51.552;13.424;2023-06-26T10:41:39;32.00;76.50
39919;DHT22;25589;51.552;13.424;2023-06-26T10:44:11;32.00;74.80
39919;DHT22;25589;51.552;13.424;2023-06-26T10:46:49;32.10;75.60
39919;DHT22;25589;51.552;13.424;2023-06-26T10:49:15;32.30;73.80
39919;DHT22;25589;51.552;13.424;2023-06-26T10:51:47;32.30;74.30
39919;DHT22;25589;51.552;13.424;2023-06-26T10:54:15;32.50;75.30
39919;DHT22;25589;51.552;13.424;2023-06-26T10:56:43;32.70;75.90
39919;DHT22;25589;51.552;13.424;2023-06-26T10:59:22;33.00;72.90
39919;DHT22;25589;51.552;13.424;2023-06-26T11:01:55;33.20;71.40
39919;DHT22;25589;51.552;13.424;2023-06-26T11:04:47;33.00;68.90
39919;DHT22;25589;51.552;13.424;2023-06-26T11:07:20;33.10;68.00
39919;DHT22;25589;51.552;13.424;2023-06-26T11:12:40;33.10;69.30
39919;DHT22;25589;51.552;13.424;2023-06-26T11:15:11;33.00;70.60
39919;DHT22;25589;51.552;13.424;2023-06-26T11:17:38;33.20;68.90
39919;DHT22;25589;51.552;13.424;2023-06-26T11:20:09;33.10;69.60
39919;DHT22;25589;51.552;13.424;2023-06-26T11:22:36;33.00;68.70
39919;DHT22;25589;51.552;13.424;2023-06-26T11:25:03;33.00;68.30
39919;DHT22;25589;51.552;13.424;2023-06-26T11:30:08;33.50;66.70
39919;DHT22;25589;51.552;13.424;2023-06-26T11:32:34;33.50;65.50
39919;DHT22;25589;51.552;13.424;2023-06-26T11:35:00;33.10;65.60
39919;DHT22;25589;51.552;13.424;2023-06-26T11:37:26;32.80;66.30
39919;DHT22;25589;51.552;13.424;2023-06-26T11:39:52;33.10;66.70
39919;DHT22;25589;51.552;13.424;2023-06-26T11:42:18;33.50;66.90
39919;DHT22;25589;51.552;13.424;2023-06-26T11:44:44;33.60;65.90
39919;DHT22;25589;51.552;13.424;2023-06-26T11:47:20;33.90;66.30
39919;DHT22;25589;51.552;13.424;2023-06-26T11:49:47;34.10;65.90
39919;DHT22;25589;51.552;13.424;2023-06-26T11:52:14;34.40;65.60
39919;DHT22;25589;51.552;13.424;2023-06-26T11:54:40;34.80;66.40
39919;DHT22;25589;51.552;13.424;2023-06-26T11:57:06;34.60;63.90
39919;DHT22;25589;51.552;13.424;2023-06-26T11:59:37;34.30;62.90
39919;DHT22;25589;51.552;13.424;2023-06-26T12:02:11;34.20;61.60
39919;DHT22;25589;51.552;13.424;2023-06-26T12:04:40;34.10;61.50
39919;DHT22;25589;51.552;13.424;2023-06-26T12:07:07;33.70;63.70
39919;DHT22;25589;51.552;13.424;2023-06-26T12:09:41;33.60;63.10
39919;DHT22;25589;51.552;13.424;2023-06-26T12:12:08;33.80;62.40
39919;DHT22;25589;51.552;13.424;2023-06-26T12:14:34;33.90;63.60
39919;DHT22;25589;51.552;13.424;2023-06-26T12:17:12;34.10;62.00
39919;DHT22;25589;51.552;13.424;2023-06-26T12:19:46;34.50;58.50
39919;DHT22;25589;51.552;13.424;2023-06-26T12:22:15;34.70;59.30
39919;DHT22;25589;51.552;13.424;2023-06-26T12:24:42;34.70;59.00
39919;DHT22;25589;51.552;13.424;2023-06-26T12:27:16;34.80;57.80
39919;DHT22;25589;51.552;13.424;2023-06-26T12:29:49;34.90;58.10
39919;DHT22;25589;51.552;13.424;2023-06-26T12:32:15;35.10;57.00
39919;DHT22;25589;51.552;13.424;2023-06-26T12:34:41;35.40;56.80
39919;DHT22;25589;51.552;13.424;2023-06-26T12:37:09;35.60;56.20
39919;DHT22;25589;51.552;13.424;2023-06-26T12:39:56;35.60;56.90
39919;DHT22;25589;51.552;13.424;2023-06-26T12:42:24;35.50;57.20
39919;DHT22;25589;51.552;13.424;2023-06-26T12:44:51;35.80;56.30
39919;DHT22;25589;51.552;13.424;2023-06-26T12:47:18;35.40;55.80
39919;DHT22;25589;51.552;13.424;2023-06-26T12:49:45;34.80;57.20
39919;DHT22;25589;51.552;13.424;2023-06-26T12:52:13;34.90;56.60
39919;DHT22;25589;51.552;13.424;2023-06-26T12:54:41;35.00;56.50
39919;DHT22;25589;51.552;13.424;2023-06-26T12:57:07;35.40;56.70
39919;DHT22;25589;51.552;13.424;2023-06-26T12:59:36;35.70;55.40
39919;DHT22;25589;51.552;13.424;2023-06-26T13:02:01;36.10;54.50
39919;DHT22;25589;51.552;13.424;2023-06-26T13:04:28;36.30;55.80
39919;DHT22;25589;51.552;13.424;2023-06-26T13:06:53;35.70;53.70
39919;DHT22;25589;51.552;13.424;2023-06-26T13:09:23;35.20;54.30
39919;DHT22;25589;51.552;13.424;2023-06-26T13:11:49;34.60;55.50
39919;DHT22;25589;51.552;13.424;2023-06-26T13:14:15;34.60;56.80
39919;DHT22;25589;51.552;13.424;2023-06-26T13:16:40;34.70;55.70
39919;DHT22;25589;51.552;13.424;2023-06-26T13:19:06;34.80;56.50
39919;DHT22;25589;51.552;13.424;2023-06-26T13:21:33;34.90;56.40
39919;DHT22;25589;51.552;13.424;2023-06-26T13:23:59;35.20;54.40
39919;DHT22;25589;51.552;13.424;2023-06-26T13:26:25;35.50;55.00
39919;DHT22;25589;51.552;13.424;2023-06-26T13:28:52;35.40;55.40
39919;DHT22;25589;51.552;13.424;2023-06-26T13:31:18;35.50;54.80
39919;DHT22;25589;51.552;13.424;2023-06-26T13:33:44;35.40;53.90
39919;DHT22;25589;51.552;13.424;2023-06-26T13:36:11;35.50;53.50
39919;DHT22;25589;51.552;13.424;2023-06-26T13:38:37;35.70;54.30
39919;DHT22;25589;51.552;13.424;2023-06-26T13:41:02;35.80;54.10
39919;DHT22;25589;51.552;13.424;2023-06-26T13:43:29;36.00;54.00
39919;DHT22;25589;51.552;13.424;2023-06-26T13:45:55;36.10;51.60
39919;DHT22;25589;51.552;13.424;2023-06-26T13:48:21;35.80;53.10
39919;DHT22;25589;51.552;13.424;2023-06-26T13:50:47;35.70;52.70
39919;DHT22;25589;51.552;13.424;2023-06-26T13:53:13;35.90;53.30
39919;DHT22;25589;51.552;13.424;2023-06-26T13:55:40;36.00;53.30
39919;DHT22;25589;51.552;13.424;2023-06-26T13:58:06;35.70;54.00
39919;DHT22;25589;51.552;13.424;2023-06-26T14:00:35;35.20;53.70
39919;DHT22;25589;51.552;13.424;2023-06-26T14:03:01;34.90;54.60
39919;DHT22;25589;51.552;13.424;2023-06-26T14:05:31;34.60;55.60
39919;DHT22;25589;51.552;13.424;2023-06-26T14:07:57;34.30;55.50
39919;DHT22;25589;51.552;13.424;2023-06-26T14:10:23;34.20;55.90
39919;DHT22;25589;51.552;13.424;2023-06-26T14:12:49;34.20;55.80
39919;DHT22;25589;51.552;13.424;2023-06-26T14:15:14;34.30;56.00
39919;DHT22;25589;51.552;13.424;2023-06-26T14:17:40;34.40;55.50
39919;DHT22;25589;51.552;13.424;2023-06-26T14:20:07;34.40;55.50
39919;DHT22;25589;51.552;13.424;2023-06-26T14:22:41;34.30;55.30
39919;DHT22;25589;51.552;13.424;2023-06-26T14:25:08;34.30;55.90
39919;DHT22;25589;51.552;13.424;2023-06-26T14:27:33;34.40;55.60
39919;DHT22;25589;51.552;13.424;2023-06-26T14:29:59;34.70;55.80
39919;DHT22;25589;51.552;13.424;2023-06-26T14:32:24;35.00;56.20
39919;DHT22;25589;51.552;13.424;2023-06-26T14:34:50;35.10;56.00
39919;DHT22;25589;51.552;13.424;2023-06-26T14:37:16;35.20;55.30
39919;DHT22;25589;51.552;13.424;2023-06-26T14:39:44;35.20;54.30
39919;DHT22;25589;51.552;13.424;2023-06-26T14:42:10;35.10;54.90
39919;DHT22;25589;51.552;13.424;2023-06-26T14:44:35;35.10;54.40
39919;DHT22;25589;51.552;13.424;2023-06-26T14:47:01;35.00;55.00
39919;DHT22;25589;51.552;13.424;2023-06-26T14:49:27;35.00;55.30
39919;DHT22;25589;51.552;13.424;2023-06-26T14:51:52;35.20;53.80
39919;DHT22;25589;51.552;13.424;2023-06-26T14:54:18;35.20;53.70
39919;DHT22;25589;51.552;13.424;2023-06-26T14:56:43;35.30;53.40
39919;DHT22;25589;51.552;13.424;2023-06-26T14:59:11;35.30;52.90
39919;DHT22;25589;51.552;13.424;2023-06-26T15:01:36;35.00;53.10
39919;DHT22;25589;51.552;13.424;2023-06-26T15:04:02;34.60;53.70
39919;DHT22;25589;51.552;13.424;2023-06-26T15:06:27;34.40;54.30
39919;DHT22;25589;51.552;13.424;2023-06-26T15:08:53;33.90;55.60
39919;DHT22;25589;51.552;13.424;2023-06-26T15:11:19;33.60;57.10
39919;DHT22;25589;51.552;13.424;2023-06-26T15:13:44;33.30;57.60
39919;DHT22;25589;51.552;13.424;2023-06-26T15:16:10;32.80;57.10
39919;DHT22;25589;51.552;13.424;2023-06-26T15:18:36;31.80;66.40
39919;DHT22;25589;51.552;13.424;2023-06-26T15:21:01;30.60;72.20
39919;DHT22;25589;51.552;13.424;2023-06-26T15:23:28;29.80;75.90
39919;DHT22;25589;51.552;13.424;2023-06-26T15:25:54;29.10;78.40